createdAt,value
2022-12-14T00:00:28.938Z,19.23
2022-12-14T00:02:57.177Z,12.75
2022-12-14T00:05:25.799Z,18.13
2022-12-14T00:07:54.070Z,16.45
2022-12-14T00:10:22.756Z,15.13
2022-12-14T00:12:51.206Z,21.42
2022-12-14T00:15:20.243Z,17.70
2022-12-14T00:17:50.018Z,17.63
2022-12-14T00:20:18.656Z,20.58
2022-12-14T00:22:47.449Z,14.52
2022-12-14T00:25:16.093Z,18.27
2022-12-14T00:27:45.636Z,14.63
2022-12-14T00:30:14.596Z,17.10
2022-12-14T00:32:42.762Z,16.77
2022-12-14T00:35:19.163Z,14.95
2022-12-14T00:37:48.829Z,15.00
2022-12-14T00:40:17.412Z,15.27
2022-12-14T00:42:45.491Z,14.98
2022-12-14T00:45:13.606Z,15.88
2022-12-14T00:47:44.882Z,17.15
2022-12-14T00:50:14.443Z,14.85
2022-12-14T00:52:42.399Z,16.17
2022-12-14T00:55:11.591Z,15.95
2022-12-14T00:57:39.764Z,14.40
2022-12-14T01:00:09.577Z,14.13
2022-12-14T01:02:37.793Z,12.20
2022-12-14T01:05:06.626Z,17.88
2022-12-14T01:07:35.943Z,13.63
2022-12-14T01:10:04.440Z,20.15
2022-12-14T01:12:32.593Z,15.88
2022-12-14T01:15:00.962Z,18.17
2022-12-14T01:17:29.049Z,14.18
2022-12-14T01:19:57.331Z,13.75
2022-12-14T01:22:25.729Z,13.45
2022-12-14T01:24:55.196Z,13.95
2022-12-14T01:27:26.518Z,14.73
2022-12-14T01:29:57.451Z,14.50
2022-12-14T01:32:25.555Z,12.60
2022-12-14T01:34:53.963Z,16.55
2022-12-14T01:37:21.957Z,17.90
2022-12-14T01:39:50.283Z,19.80
2022-12-14T01:42:19.839Z,15.18
2022-12-14T01:44:55.838Z,16.23
2022-12-14T01:47:30.267Z,13.45
2022-12-14T01:50:03.441Z,13.13
2022-12-14T01:52:37.959Z,15.00
2022-12-14T01:55:11.419Z,15.00
2022-12-14T01:57:45.467Z,14.15
2022-12-14T02:00:15.370Z,20.73
2022-12-14T02:02:50.421Z,13.38
2022-12-14T02:05:21.774Z,17.25
2022-12-14T02:07:52.208Z,15.23
2022-12-14T02:10:22.436Z,13.68
2022-12-14T02:12:58.471Z,10.98
2022-12-14T02:15:26.779Z,14.10
2022-12-14T02:17:55.010Z,16.10
2022-12-14T02:20:24.958Z,12.60
2022-12-14T02:23:42.558Z,16.58
2022-12-14T02:26:38.302Z,11.63
2022-12-14T02:29:30.418Z,15.00
2022-12-14T02:32:10.186Z,16.25
2022-12-14T02:34:49.631Z,18.35
2022-12-14T02:37:23.947Z,10.93
2022-12-14T02:40:03.262Z,14.65
2022-12-14T02:42:43.243Z,13.82
2022-12-14T02:45:21.694Z,14.13
2022-12-14T02:47:55.449Z,15.25
2022-12-14T02:50:31.984Z,14.15
2022-12-14T02:53:09.036Z,14.68
2022-12-14T02:55:40.843Z,15.88
2022-12-14T02:58:15.458Z,14.15
2022-12-14T03:00:46.505Z,16.98
2022-12-14T03:03:14.565Z,16.67
2022-12-14T03:05:43.169Z,16.67
2022-12-14T03:08:15.242Z,13.50
2022-12-14T03:10:49.973Z,13.82
2022-12-14T03:13:23.279Z,13.60
2022-12-14T03:15:58.966Z,14.77
2022-12-14T03:18:31.889Z,16.35
2022-12-14T03:21:02.327Z,15.32
2022-12-14T03:23:35.724Z,16.13
2022-12-14T03:26:13.649Z,13.90
2022-12-14T03:28:46.730Z,12.57
2022-12-14T03:31:22.265Z,12.82
2022-12-14T03:33:53.396Z,10.45
2022-12-14T03:36:28.465Z,13.18
2022-12-14T03:39:02.144Z,14.30
2022-12-14T03:41:39.425Z,14.38
2022-12-14T03:44:23.960Z,16.58
2022-12-14T03:46:59.788Z,16.13
2022-12-14T03:49:39.698Z,12.13
2022-12-14T03:52:13.816Z,9.75
2022-12-14T03:54:52.299Z,10.63
2022-12-14T03:57:34.393Z,15.57
2022-12-14T04:00:06.993Z,11.02
2022-12-14T04:02:42.996Z,11.05
2022-12-14T04:05:16.132Z,15.38
2022-12-14T04:07:53.752Z,11.82
2022-12-14T04:10:43.914Z,13.23
2022-12-14T04:13:48.982Z,14.68
2022-12-14T04:16:40.459Z,12.48
2022-12-14T04:19:25.255Z,10.95
2022-12-14T04:21:58.565Z,12.63
2022-12-14T04:24:50.752Z,11.35
2022-12-14T04:27:23.941Z,13.45
2022-12-14T04:30:00.434Z,10.23
2022-12-14T04:32:34.368Z,13.63
2022-12-14T04:35:10.932Z,12.45
2022-12-14T04:37:41.660Z,10.23
2022-12-14T04:40:12.863Z,11.57
2022-12-14T04:42:47.482Z,12.38
2022-12-14T04:45:22.453Z,12.45
2022-12-14T04:47:58.179Z,11.77
2022-12-14T04:50:32.309Z,15.65
2022-12-14T04:53:06.208Z,15.43
2022-12-14T04:55:38.360Z,16.88
2022-12-14T04:58:12.063Z,10.25
2022-12-14T05:00:52.029Z,10.68
2022-12-14T05:03:25.812Z,12.82
2022-12-14T05:06:06.800Z,13.88
2022-12-14T05:09:01.769Z,10.80
2022-12-14T05:14:25.973Z,16.98
2022-12-14T05:16:54.320Z,11.93
2022-12-14T05:19:26.568Z,12.15
2022-12-14T05:21:56.888Z,11.63
2022-12-14T05:24:25.237Z,12.85
2022-12-14T05:26:53.685Z,13.95
2022-12-14T05:29:22.191Z,14.43
2022-12-14T05:31:50.838Z,15.68
2022-12-14T05:34:19.319Z,14.52
2022-12-14T05:36:47.623Z,13.65
2022-12-14T05:39:18.441Z,17.77
2022-12-14T05:41:46.898Z,14.75
2022-12-14T05:44:15.376Z,12.32
2022-12-14T05:46:43.953Z,15.13
2022-12-14T05:49:13.022Z,16.60
2022-12-14T05:51:41.336Z,16.35
2022-12-14T05:54:10.288Z,17.27
2022-12-14T05:56:39.961Z,15.57
2022-12-14T05:59:08.307Z,13.70
2022-12-14T06:01:36.468Z,15.20
2022-12-14T06:04:04.783Z,16.00
2022-12-14T06:06:34.963Z,16.98
2022-12-14T06:09:03.281Z,16.60
2022-12-14T06:11:31.401Z,14.27
2022-12-14T06:14:01.522Z,14.20
2022-12-14T06:16:30.395Z,13.23
2022-12-14T06:19:00.648Z,14.95
2022-12-14T06:21:31.533Z,19.15
2022-12-14T06:24:01.734Z,18.38
2022-12-14T06:26:32.530Z,19.90
2022-12-14T06:29:02.362Z,17.95
2022-12-14T06:31:33.727Z,15.65
2022-12-14T06:34:03.695Z,18.80
2022-12-14T06:36:33.977Z,15.63
2022-12-14T06:39:04.194Z,12.90
2022-12-14T06:41:32.568Z,19.02
2022-12-14T06:44:07.106Z,16.23
2022-12-14T06:46:35.919Z,14.23
2022-12-14T06:49:06.221Z,17.23
2022-12-14T06:51:46.697Z,18.83
2022-12-14T06:54:15.628Z,15.48
2022-12-14T06:56:44.675Z,16.48
2022-12-14T06:59:14.645Z,17.30
2022-12-14T07:01:42.940Z,15.48
2022-12-14T07:04:11.885Z,16.25
2022-12-14T07:06:41.570Z,20.20
2022-12-14T07:09:13.336Z,17.50
2022-12-14T07:11:42.559Z,21.35
2022-12-14T07:14:17.229Z,18.63
2022-12-14T07:16:48.738Z,20.77
2022-12-14T07:19:17.494Z,20.92
2022-12-14T07:21:45.486Z,15.48
2022-12-14T07:24:13.528Z,21.83
2022-12-14T07:26:41.700Z,21.85
2022-12-14T07:29:11.892Z,18.63
2022-12-14T07:31:41.234Z,18.65
2022-12-14T07:34:12.476Z,19.75
2022-12-14T07:36:40.636Z,15.63
2022-12-14T07:39:08.990Z,21.90
2022-12-14T07:41:37.209Z,22.90
2022-12-14T07:44:05.378Z,22.17
2022-12-14T07:46:33.562Z,20.63
2022-12-14T07:49:03.666Z,19.17
2022-12-14T07:51:33.191Z,20.60
2022-12-14T07:54:02.627Z,18.27
2022-12-14T07:56:34.435Z,19.92
2022-12-14T07:59:04.433Z,22.27
2022-12-14T08:01:34.907Z,24.55
2022-12-14T08:04:07.697Z,19.50
2022-12-14T08:06:37.682Z,16.88
2022-12-14T08:09:06.472Z,19.08
2022-12-14T08:11:34.953Z,23.75
2022-12-14T08:14:05.671Z,21.25
2022-12-14T08:16:34.336Z,23.08
2022-12-14T08:19:04.983Z,20.88
2022-12-14T08:21:35.489Z,17.77
2022-12-14T08:24:03.582Z,16.63
2022-12-14T08:26:35.460Z,23.38
2022-12-14T08:29:04.648Z,24.90
2022-12-14T08:31:33.831Z,20.00
2022-12-14T08:34:03.220Z,20.23
2022-12-14T08:36:35.101Z,18.17
2022-12-14T08:39:05.533Z,24.27
2022-12-14T08:41:34.127Z,19.55
2022-12-14T08:44:03.957Z,24.38
2022-12-14T08:46:34.033Z,23.92
2022-12-14T08:49:02.401Z,25.13
2022-12-14T08:51:32.427Z,24.45
2022-12-14T08:54:00.664Z,20.08
2022-12-14T08:56:30.007Z,22.88
2022-12-14T08:58:58.851Z,23.45
2022-12-14T09:01:33.493Z,25.02
2022-12-14T09:04:07.978Z,26.30
2022-12-14T09:06:40.367Z,19.92
2022-12-14T09:09:15.977Z,20.60
2022-12-14T09:11:45.395Z,23.05
2022-12-14T09:14:14.149Z,20.95
2022-12-14T09:16:42.782Z,22.30
2022-12-14T09:19:11.579Z,19.33
2022-12-14T09:21:41.384Z,20.55
2022-12-14T09:24:12.050Z,23.85
2022-12-14T09:26:40.331Z,22.88
2022-12-14T09:29:08.615Z,16.55
2022-12-14T09:31:37.391Z,28.48
2022-12-14T09:34:05.904Z,20.05
2022-12-14T09:36:34.874Z,28.33
2022-12-14T09:39:05.416Z,24.58
2022-12-14T09:41:57.751Z,23.45
2022-12-14T09:44:48.289Z,23.50
2022-12-14T09:47:22.117Z,31.42
2022-12-14T09:49:54.585Z,23.35
2022-12-14T09:52:27.357Z,23.77
2022-12-14T09:54:59.630Z,25.67
2022-12-14T09:57:33.899Z,25.25
2022-12-14T10:00:02.095Z,23.98
2022-12-14T10:02:41.983Z,22.77
2022-12-14T10:05:47.053Z,23.23
2022-12-14T10:08:22.803Z,22.90
2022-12-14T10:11:00.476Z,22.50
2022-12-14T10:13:38.791Z,20.42
2022-12-14T10:16:15.012Z,23.27
2022-12-14T10:19:18.232Z,26.88
2022-12-14T10:21:50.391Z,27.77
2022-12-14T10:24:23.327Z,26.77
2022-12-14T10:26:55.108Z,25.60
2022-12-14T10:29:31.092Z,26.95
2022-12-14T10:32:08.034Z,27.75
2022-12-14T10:34:38.504Z,25.23
2022-12-14T10:37:22.218Z,23.27
2022-12-14T10:40:01.766Z,26.15
2022-12-14T10:42:44.581Z,24.23
2022-12-14T10:45:45.445Z,22.30
2022-12-14T10:48:37.283Z,24.33
2022-12-14T10:51:09.645Z,26.90
2022-12-14T10:53:44.274Z,28.55
2022-12-14T10:56:18.366Z,26.75
2022-12-14T10:59:26.828Z,24.05
2022-12-14T11:02:02.692Z,29.85
2022-12-14T11:04:39.057Z,26.02
2022-12-14T11:07:10.846Z,26.63
2022-12-14T11:09:40.921Z,26.80
2022-12-14T11:12:19.598Z,23.60
2022-12-14T11:14:55.690Z,28.00
2022-12-14T11:17:36.512Z,27.00
2022-12-14T11:20:15.582Z,22.88
2022-12-14T11:22:49.109Z,26.35
2022-12-14T11:25:35.361Z,21.45
2022-12-14T11:28:20.253Z,27.90
2022-12-14T11:31:01.517Z,25.48
2022-12-14T11:33:35.994Z,30.38
2022-12-14T11:36:10.974Z,44.40
2022-12-14T11:38:39.525Z,24.27
2022-12-14T11:41:11.796Z,23.42
2022-12-14T11:43:41.504Z,25.08
2022-12-14T11:46:12.808Z,22.48
2022-12-14T11:48:50.905Z,26.15
2022-12-14T11:51:19.944Z,22.90
2022-12-14T11:54:07.380Z,25.55
2022-12-14T11:56:38.461Z,30.10
2022-12-14T11:59:07.150Z,24.95
2022-12-14T12:01:38.466Z,26.75
2022-12-14T12:04:14.041Z,25.15
2022-12-14T12:06:44.877Z,27.80
2022-12-14T12:09:28.423Z,20.20
2022-12-14T12:11:57.559Z,27.73
2022-12-14T12:14:32.087Z,28.58
2022-12-14T12:17:03.232Z,25.35
2022-12-14T12:19:37.711Z,23.70
2022-12-14T12:22:10.544Z,26.05
2022-12-14T12:25:08.608Z,25.80
2022-12-14T12:27:35.655Z,29.10
2022-12-14T12:30:08.307Z,26.83
2022-12-14T12:32:49.931Z,22.70
2022-12-14T12:35:23.229Z,23.98
2022-12-14T12:37:55.479Z,29.63
2022-12-14T12:40:30.327Z,34.97
2022-12-14T12:43:03.479Z,31.60
2022-12-14T12:45:38.100Z,27.80
2022-12-14T12:48:18.058Z,31.52
2022-12-14T12:50:51.105Z,29.08
2022-12-14T12:53:26.317Z,30.92
2022-12-14T12:55:58.580Z,35.17
2022-12-14T12:58:34.016Z,37.22
2022-12-14T13:01:07.193Z,35.35
2022-12-14T13:03:40.957Z,35.78
2022-12-14T13:06:14.631Z,34.70
2022-12-14T13:08:49.778Z,36.85
2022-12-14T13:11:26.838Z,31.02
2022-12-14T13:13:59.403Z,30.30
2022-12-14T13:16:33.833Z,35.15
2022-12-14T13:22:07.954Z,36.13
2022-12-14T13:24:38.802Z,33.95
2022-12-14T13:27:44.882Z,30.83
2022-12-14T13:30:22.556Z,33.63
2022-12-14T13:33:08.663Z,35.22
2022-12-14T13:35:50.825Z,34.28
2022-12-14T13:38:56.099Z,37.75
2022-12-14T13:41:35.697Z,32.70
2022-12-14T13:44:40.253Z,29.77
2022-12-14T13:47:16.900Z,31.63
2022-12-14T13:52:46.480Z,28.35
2022-12-14T13:55:29.499Z,39.70
2022-12-14T13:58:17.596Z,31.40
2022-12-14T14:00:58.137Z,36.60
2022-12-14T14:03:48.397Z,32.78
2022-12-14T14:06:23.810Z,37.92
2022-12-14T14:08:54.209Z,31.25
2022-12-14T14:11:56.792Z,33.38
2022-12-14T14:14:41.587Z,33.92
2022-12-14T14:17:18.662Z,33.17
2022-12-14T14:19:49.727Z,40.45
2022-12-14T14:22:23.278Z,38.17
2022-12-14T14:25:02.160Z,29.85
2022-12-14T14:27:37.793Z,32.83
2022-12-14T14:30:26.128Z,34.90
2022-12-14T14:33:07.610Z,33.60
2022-12-14T14:35:43.779Z,30.38
2022-12-14T14:38:27.298Z,37.15
2022-12-14T14:41:16.739Z,35.13
2022-12-14T14:43:52.019Z,37.40
2022-12-14T14:46:23.331Z,38.03
2022-12-14T14:48:54.805Z,30.95
2022-12-14T14:51:27.307Z,34.63
2022-12-14T14:57:55.599Z,29.98
2022-12-14T15:00:24.971Z,38.38
2022-12-14T15:02:55.741Z,41.00
2022-12-14T15:05:44.183Z,37.85
2022-12-14T15:08:20.138Z,33.72
2022-12-14T15:10:50.176Z,42.97
2022-12-14T15:13:24.533Z,39.55
2022-12-14T15:15:56.283Z,43.13
2022-12-14T15:18:27.128Z,38.67
2022-12-14T15:20:59.175Z,36.00
2022-12-14T15:23:33.311Z,34.80
2022-12-14T15:26:03.558Z,42.15
2022-12-14T15:28:33.038Z,36.60
2022-12-14T15:31:01.739Z,37.97
2022-12-14T15:33:35.067Z,34.90
2022-12-14T15:36:06.179Z,39.80
2022-12-14T15:38:37.114Z,33.17
2022-12-14T15:41:08.273Z,37.67
2022-12-14T15:43:45.111Z,35.45
2022-12-14T15:46:19.027Z,33.60
2022-12-14T15:48:48.018Z,35.08
2022-12-14T15:51:20.000Z,35.35
2022-12-14T15:53:51.377Z,37.72
2022-12-14T15:56:30.560Z,45.10
2022-12-14T15:59:03.393Z,42.88
2022-12-14T16:01:36.683Z,46.67
2022-12-14T16:04:09.535Z,46.55
2022-12-14T16:06:41.820Z,37.13
2022-12-14T16:09:18.442Z,39.92
2022-12-14T16:11:50.797Z,40.08
2022-12-14T16:14:27.184Z,37.20
2022-12-14T16:16:55.716Z,43.83
2022-12-14T16:19:28.867Z,43.58
2022-12-14T16:22:22.853Z,42.50
2022-12-14T16:25:18.191Z,43.00
2022-12-14T16:27:49.839Z,43.25
2022-12-14T16:30:28.102Z,45.97
2022-12-14T16:33:08.533Z,45.25
2022-12-14T16:35:39.585Z,44.38
2022-12-14T16:38:10.039Z,38.15
2022-12-14T16:40:40.853Z,41.17
2022-12-14T16:43:26.905Z,46.38
2022-12-14T16:46:18.551Z,45.60
2022-12-14T16:49:09.445Z,51.00
2022-12-14T16:54:31.048Z,46.05
2022-12-14T16:57:03.425Z,50.15
2022-12-14T16:59:44.232Z,45.80
2022-12-14T17:02:31.430Z,36.65
2022-12-14T17:05:03.757Z,40.35
2022-12-14T17:07:34.291Z,42.50
2022-12-14T17:10:03.044Z,45.53
2022-12-14T17:12:31.266Z,47.78
2022-12-14T17:15:00.401Z,44.58
2022-12-14T17:17:35.053Z,51.30
2022-12-14T17:20:06.868Z,52.03
2022-12-14T17:22:37.609Z,44.10
2022-12-14T17:25:06.689Z,49.90
2022-12-14T17:27:34.790Z,41.05
2022-12-14T17:30:03.312Z,55.08
2022-12-14T17:32:34.571Z,49.47
2022-12-14T17:35:04.251Z,52.83
2022-12-14T17:37:36.434Z,45.30
2022-12-14T17:40:06.994Z,51.90
2022-12-14T17:42:35.841Z,49.63
2022-12-14T17:45:04.656Z,51.97
2022-12-14T17:47:34.524Z,45.75
2022-12-14T17:50:02.856Z,51.95
2022-12-14T17:52:33.477Z,45.95
2022-12-14T17:55:02.138Z,48.00
2022-12-14T17:57:31.335Z,45.28
2022-12-14T18:00:14.492Z,44.30
2022-12-14T18:02:46.236Z,52.03
2022-12-14T18:05:20.901Z,45.83
2022-12-14T18:07:49.782Z,52.33
2022-12-14T18:10:19.716Z,52.80
2022-12-14T18:12:47.945Z,40.72
2022-12-14T18:15:21.312Z,47.47
2022-12-14T18:17:51.773Z,50.70
2022-12-14T18:20:20.879Z,47.08
2022-12-14T18:22:50.152Z,43.72
2022-12-14T18:25:32.096Z,52.90
2022-12-14T18:28:02.403Z,48.28
2022-12-14T18:30:39.503Z,45.10
2022-12-14T18:33:14.490Z,43.03
2022-12-14T18:35:43.779Z,45.53
2022-12-14T18:38:11.938Z,45.35
2022-12-14T18:40:41.947Z,46.35
2022-12-14T18:43:16.964Z,47.50
2022-12-14T18:45:45.204Z,47.50
2022-12-14T18:48:15.373Z,41.83
2022-12-14T18:50:43.835Z,38.33
2022-12-14T18:53:15.313Z,44.92
2022-12-14T18:55:44.529Z,43.58
2022-12-14T18:58:18.121Z,40.33
2022-12-14T19:00:47.246Z,49.53
2022-12-14T19:03:16.840Z,46.45
2022-12-14T19:05:45.120Z,44.92
2022-12-14T19:08:13.952Z,52.85
2022-12-14T19:10:44.190Z,46.90
2022-12-14T19:13:19.063Z,46.67
2022-12-14T19:15:51.552Z,52.58
2022-12-14T19:18:21.159Z,39.65
2022-12-14T19:20:49.964Z,50.35
2022-12-14T19:23:19.702Z,43.40
2022-12-14T19:25:48.590Z,42.80
2022-12-14T19:28:33.174Z,45.08
2022-12-14T19:31:02.829Z,51.47
2022-12-14T19:33:32.915Z,48.15
2022-12-14T19:36:01.405Z,46.28
2022-12-14T19:38:29.868Z,45.40
2022-12-14T19:41:00.413Z,52.30
2022-12-14T19:43:29.695Z,51.17
2022-12-14T19:45:58.385Z,48.85
2022-12-14T19:48:26.274Z,49.30
2022-12-14T19:50:56.032Z,45.63
2022-12-14T19:53:24.272Z,49.67
2022-12-14T19:55:54.121Z,43.75
2022-12-14T19:58:24.992Z,45.13
2022-12-14T20:00:54.020Z,42.75
2022-12-14T20:03:22.660Z,46.80
2022-12-14T20:05:53.169Z,53.53
2022-12-14T20:08:23.222Z,55.17
2022-12-14T20:10:53.123Z,48.00
2022-12-14T20:13:21.249Z,47.00
2022-12-14T20:15:50.825Z,43.55
2022-12-14T20:18:19.604Z,42.10
2022-12-14T20:20:49.968Z,50.03
2022-12-14T20:23:18.511Z,44.85
2022-12-14T20:25:47.779Z,55.28
2022-12-14T20:28:16.174Z,56.42
2022-12-14T20:30:45.632Z,52.35
2022-12-14T20:33:13.972Z,54.33
2022-12-14T20:35:42.484Z,64.80
2022-12-14T20:38:10.457Z,56.05
2022-12-14T20:40:39.483Z,51.50
2022-12-14T20:43:08.955Z,53.70
2022-12-14T20:45:39.457Z,50.17
2022-12-14T20:48:08.367Z,51.90
2022-12-14T20:50:37.323Z,46.90
2022-12-14T20:53:05.810Z,58.08
2022-12-14T20:55:35.162Z,55.40
2022-12-14T20:58:03.378Z,52.55
2022-12-14T21:00:33.371Z,48.47
2022-12-14T21:03:01.507Z,60.00
2022-12-14T21:05:29.721Z,53.60
2022-12-14T21:07:58.476Z,48.70
2022-12-14T21:10:26.389Z,49.53
2022-12-14T21:12:53.307Z,57.35
2022-12-14T21:15:21.772Z,50.45
2022-12-14T21:17:51.275Z,52.85
2022-12-14T21:20:19.851Z,53.10
2022-12-14T21:22:47.813Z,40.72
2022-12-14T21:25:16.352Z,41.03
2022-12-14T21:27:44.802Z,42.92
2022-12-14T21:30:13.873Z,43.85
2022-12-14T21:32:42.048Z,44.97
2022-12-14T21:35:13.382Z,50.70
2022-12-14T21:37:41.482Z,46.38
2022-12-14T21:40:31.102Z,46.60
2022-12-14T21:42:58.133Z,47.72
2022-12-14T21:45:26.746Z,49.25
2022-12-14T21:47:54.970Z,49.65
2022-12-14T21:50:24.555Z,48.20
2022-12-14T21:52:52.922Z,48.47
2022-12-14T21:55:21.460Z,52.63
2022-12-14T21:58:06.981Z,50.03
2022-12-14T22:00:35.398Z,47.30
2022-12-14T22:03:03.668Z,53.42
2022-12-14T22:05:33.761Z,56.58
2022-12-14T22:08:01.831Z,52.20
2022-12-14T22:10:30.324Z,45.53
2022-12-14T22:12:58.498Z,62.90
2022-12-14T22:15:27.057Z,57.83
2022-12-14T22:17:55.370Z,55.05
2022-12-14T22:20:23.844Z,59.08
2022-12-14T22:22:53.357Z,52.78
2022-12-14T22:25:22.079Z,59.95
2022-12-14T22:27:50.355Z,43.55
2022-12-14T22:30:19.314Z,48.30
2022-12-14T22:32:47.995Z,48.55
2022-12-14T22:35:16.736Z,64.50
2022-12-14T22:37:44.721Z,66.30
2022-12-14T22:40:14.821Z,51.65
2022-12-14T22:42:42.957Z,48.42
2022-12-14T22:45:11.925Z,42.25
2022-12-14T22:47:39.913Z,41.47
2022-12-14T22:50:09.238Z,47.40
2022-12-14T22:52:37.219Z,41.28
2022-12-14T22:55:06.310Z,45.97
2022-12-14T22:57:41.637Z,48.05
2022-12-14T23:00:13.562Z,44.78
2022-12-14T23:02:46.918Z,43.00
2022-12-14T23:05:16.217Z,45.10
2022-12-14T23:07:44.314Z,53.45
2022-12-14T23:10:30.312Z,59.50
2022-12-14T23:13:17.216Z,49.10
2022-12-14T23:16:02.485Z,40.75
2022-12-14T23:18:47.838Z,43.70
2022-12-14T23:21:33.639Z,54.30
2022-12-14T23:24:18.725Z,44.28
2022-12-14T23:27:09.346Z,45.63
2022-12-14T23:29:56.467Z,50.15
2022-12-14T23:32:42.246Z,46.28
2022-12-14T23:35:28.176Z,48.83
2022-12-14T23:38:13.815Z,48.88
2022-12-14T23:40:59.785Z,53.25
2022-12-14T23:43:45.179Z,57.42
2022-12-14T23:46:32.562Z,56.10
2022-12-14T23:49:18.226Z,48.13
2022-12-14T23:52:03.613Z,48.63
2022-12-14T23:54:49.092Z,56.50
2022-12-14T23:57:34.529Z,49.83
